Time;durP1;ratioP1;P1;durP2;ratioP2;P2;SDS_P1;SDS_P2;PMS_P1;PMS_P2;Temp;Humidity;BMP_temperature;BMP_pressure;BME280_temperature;BME280_humidity;BME280_pressure;Samples;Min_cycle;Max_cycle;Signal;HPM_P1;HPM_P2
2022/05/29 00:00:54;;;;;;;8.07;3.23;;;20.50;98.10;;;;;;5079612;28;20186;-71
2022/05/29 00:03:21;;;;;;;11.17;3.43;;;20.50;98.20;;;;;;5058078;28;20209;-70
2022/05/29 00:05:49;;;;;;;11.47;3.40;;;20.50;98.10;;;;;;5066405;28;20289;-70
2022/05/29 00:08:28;;;;;;;14.60;4.03;;;20.50;98.10;;;;;;5063247;28;20189;-70
2022/05/29 00:10:55;;;;;;;10.70;2.97;;;20.50;98.20;;;;;;5076042;28;20186;-71
2022/05/29 00:13:22;;;;;;;8.40;2.70;;;20.40;98.10;;;;;;5082240;28;20245;-71
2022/05/29 00:15:49;;;;;;;8.40;2.90;;;20.40;98.00;;;;;;5081534;28;20217;-71
2022/05/29 00:18:15;;;;;;;10.40;3.30;;;20.40;98.10;;;;;;5066203;28;20186;-70
2022/05/29 00:20:45;;;;;;;8.90;3.20;;;20.40;98.00;;;;;;5065760;28;20246;-69
2022/05/29 00:23:11;;;;;;;12.23;2.90;;;20.30;97.90;;;;;;5077226;28;20696;-70
2022/05/29 00:25:38;;;;;;;11.30;3.03;;;20.40;97.90;;;;;;5062816;28;20329;-70
2022/05/29 00:28:05;;;;;;;6.80;2.70;;;20.40;97.90;;;;;;5082322;28;20242;-70
2022/05/29 00:30:32;;;;;;;15.37;3.67;;;20.40;97.90;;;;;;5062703;28;20617;-69
2022/05/29 00:32:59;;;;;;;11.07;3.17;;;20.50;98.00;;;;;;5058054;28;20205;-69
2022/05/29 00:35:25;;;;;;;10.47;3.10;;;20.40;98.10;;;;;;5066220;28;20293;-71
2022/05/29 00:37:52;;;;;;;11.27;3.13;;;20.40;98.20;;;;;;5079452;28;20936;-69
2022/05/29 00:40:56;;;;;;;7.67;3.07;;;20.40;98.40;;;;;;5057938;28;20181;-69
2022/05/29 00:43:22;;;;;;;9.53;2.90;;;20.40;98.40;;;;;;5044989;28;20207;-70
2022/05/29 00:46:12;;;;;;;11.13;3.30;;;20.50;98.30;;;;;;5058506;28;20185;-71
2022/05/29 00:48:42;;;;;;;11.93;3.00;;;20.50;98.50;;;;;;5061039;28;20224;-70
2022/05/29 00:51:11;;;;;;;7.10;3.10;;;20.40;98.50;;;;;;5075423;28;20622;-70
2022/05/29 00:53:39;;;;;;;12.53;3.50;;;20.40;98.30;;;;;;5078551;28;20213;-71
2022/05/29 00:56:12;;;;;;;10.40;3.03;;;20.30;98.10;;;;;;5077995;28;20206;-70
2022/05/29 00:58:39;;;;;;;6.77;2.83;;;20.30;98.10;;;;;;5080797;28;20209;-69
2022/05/29 01:01:06;;;;;;;11.67;3.10;;;20.30;98.30;;;;;;5080272;28;20192;-71
2022/05/29 01:03:32;;;;;;;9.07;3.30;;;20.40;98.10;;;;;;5059270;28;20280;-70
2022/05/29 01:05:59;;;;;;;13.60;3.40;;;20.40;97.80;;;;;;5075324;28;20272;-71
2022/05/29 01:08:36;;;;;;;8.33;3.37;;;20.40;97.70;;;;;;5066615;28;20645;-70
2022/05/29 01:11:25;;;;;;;8.20;2.80;;;20.40;97.90;;;;;;5082333;28;20181;-71
2022/05/29 01:14:13;;;;;;;10.07;3.13;;;20.40;97.50;;;;;;5081578;28;20259;-69
2022/05/29 01:17:18;;;;;;;14.17;3.43;;;20.50;97.20;;;;;;5084896;28;20186;-71
2022/05/29 01:19:56;;;;;;;7.80;2.70;;;20.60;97.10;;;;;;5087471;28;20199;-68
2022/05/29 01:22:36;;;;;;;10.43;3.10;;;20.70;97.10;;;;;;5083628;28;20201;-70
2022/05/29 01:25:48;;;;;;;7.17;2.80;;;20.70;97.00;;;;;;5087992;28;20178;-69
2022/05/29 01:29:05;;;;;;;11.93;3.10;;;20.80;97.10;;;;;;5067772;28;20189;-69
2022/05/29 01:31:52;;;;;;;7.10;2.47;;;20.80;97.10;;;;;;5040340;28;20205;-70
2022/05/29 01:34:58;;;;;;;8.63;3.60;;;20.80;97.30;;;;;;5079746;28;20217;-69
2022/05/29 01:37:48;;;;;;;9.63;2.77;;;20.80;97.30;;;;;;5074419;28;20229;-71
2022/05/29 01:40:29;;;;;;;9.60;2.80;;;20.70;98.00;;;;;;5086031;28;20182;-72
2022/05/29 01:43:23;;;;;;;10.07;3.40;;;20.70;97.40;;;;;;5084637;28;20200;-70
2022/05/29 01:46:04;;;;;;;10.10;2.87;;;20.70;97.40;;;;;;5031056;28;20790;-70
2022/05/29 01:48:46;;;;;;;12.67;3.23;;;20.60;97.90;;;;;;5080650;28;20966;-69
2022/05/29 01:51:18;;;;;;;9.33;2.90;;;20.60;97.70;;;;;;5080766;28;20203;-71
2022/05/29 01:54:43;;;;;;;7.43;2.30;;;20.60;97.70;;;;;;5046095;28;20206;-70
2022/05/29 01:57:21;;;;;;;5.50;2.80;;;20.60;97.70;;;;;;5058120;28;21878;-70
2022/05/29 02:00:12;;;;;;;6.07;2.30;;;20.50;97.90;;;;;;5066017;28;20201;-71
2022/05/29 02:02:51;;;;;;;11.63;2.60;;;20.60;98.10;;;;;;5082043;28;20178;-71
2022/05/29 02:05:36;;;;;;;6.13;2.70;;;20.60;98.10;;;;;;5077704;28;20181;-71
2022/05/29 02:08:15;;;;;;;8.47;2.70;;;20.60;97.50;;;;;;5060581;28;20242;-69
2022/05/29 02:10:50;;;;;;;4.10;2.47;;;20.70;97.40;;;;;;5074976;28;20182;-71
2022/05/29 02:13:23;;;;;;;8.20;2.77;;;20.80;97.30;;;;;;5081918;28;20217;-70
2022/05/29 02:16:08;;;;;;;11.03;3.03;;;20.80;97.80;;;;;;5050598;28;22443;-71
2022/05/29 02:18:49;;;;;;;7.47;2.47;;;20.80;97.40;;;;;;5082133;28;20187;-68
2022/05/29 02:21:44;;;;;;;10.57;3.03;;;20.80;97.70;;;;;;5066808;28;20621;-70
2022/05/29 02:24:20;;;;;;;4.83;2.50;;;20.70;97.90;;;;;;5048025;28;20910;-69
2022/05/29 02:26:59;;;;;;;6.57;2.50;;;20.70;98.00;;;;;;5083807;28;20236;-71
2022/05/29 02:29:27;;;;;;;5.60;2.80;;;20.70;98.00;;;;;;5082316;28;20583;-71
2022/05/29 02:32:21;;;;;;;7.80;2.63;;;20.60;98.10;;;;;;5050477;28;20217;-71
2022/05/29 02:35:14;;;;;;;8.80;2.50;;;20.60;98.20;;;;;;5065185;28;20222;-69
2022/05/29 02:37:50;;;;;;;4.80;2.67;;;20.50;98.20;;;;;;5070397;28;22161;-71
2022/05/29 02:40:47;;;;;;;5.87;2.60;;;20.40;98.30;;;;;;5077852;28;20185;-70
2022/05/29 02:43:39;;;;;;;9.47;3.23;;;20.40;98.40;;;;;;5082811;28;20592;-69
2022/05/29 02:46:34;;;;;;;8.53;2.90;;;20.40;98.30;;;;;;5081942;28;20193;-71
2022/05/29 02:49:23;;;;;;;11.27;2.80;;;20.40;98.10;;;;;;5016622;28;20603;-69
2022/05/29 02:52:01;;;;;;;5.37;3.00;;;20.50;98.10;;;;;;5069293;28;20213;-70
2022/05/29 02:54:31;;;;;;;10.73;3.23;;;20.50;98.10;;;;;;5081480;28;20336;-70
2022/05/29 02:57:02;;;;;;;7.10;3.10;;;20.50;98.30;;;;;;5063662;28;20185;-70
2022/05/29 02:59:50;;;;;;;8.67;2.80;;;20.50;98.30;;;;;;5082902;28;20194;-72
2022/05/29 03:02:35;;;;;;;7.83;2.70;;;20.50;98.40;;;;;;5049360;28;20189;-70
2022/05/29 03:05:29;;;;;;;6.57;3.13;;;20.50;98.30;;;;;;5064944;28;20213;-70
2022/05/29 03:08:11;;;;;;;6.27;2.73;;;20.50;98.50;;;;;;5076045;28;20193;-71
2022/05/29 03:10:53;;;;;;;12.83;2.93;;;20.40;98.50;;;;;;5079624;28;20217;-70
2022/05/29 03:13:38;;;;;;;8.53;2.70;;;20.50;98.50;;;;;;5051242;28;20210;-70
2022/05/29 03:16:43;;;;;;;5.03;2.67;;;20.50;98.60;;;;;;5063897;28;20276;-70
2022/05/29 03:19:44;;;;;;;4.90;2.47;;;20.50;98.70;;;;;;5084187;28;20182;-70
2022/05/29 03:22:59;;;;;;;8.43;2.93;;;20.60;98.80;;;;;;5077780;28;20224;-69
2022/05/29 03:25:51;;;;;;;10.13;2.80;;;20.60;99.00;;;;;;5081729;28;20197;-71
2022/05/29 03:28:40;;;;;;;5.37;2.53;;;20.60;99.20;;;;;;5061949;28;20193;-72
2022/05/29 03:31:16;;;;;;;6.20;2.90;;;20.60;99.40;;;;;;5065222;28;20240;-70
2022/05/29 03:33:46;;;;;;;8.43;2.60;;;20.60;99.60;;;;;;5077867;28;20202;-71
2022/05/29 03:36:15;;;;;;;8.47;3.20;;;20.60;99.50;;;;;;5064354;28;20641;-69
2022/05/29 03:38:45;;;;;;;10.13;2.70;;;20.70;99.70;;;;;;5058284;28;20177;-71
2022/05/29 03:41:42;;;;;;;10.03;2.97;;;20.70;99.80;;;;;;5056449;28;20265;-69
2022/05/29 03:44:10;;;;;;;5.07;2.70;;;20.70;99.90;;;;;;5083284;28;20190;-71
2022/05/29 03:46:39;;;;;;;9.50;2.87;;;20.70;99.90;;;;;;5048350;28;20192;-70
2022/05/29 03:49:07;;;;;;;9.07;2.47;;;20.70;99.90;;;;;;5081119;28;20189;-72
2022/05/29 03:51:35;;;;;;;6.80;2.80;;;20.70;99.90;;;;;;5071186;28;20210;-71
2022/05/29 03:54:04;;;;;;;6.20;2.70;;;20.70;99.90;;;;;;5070957;28;20271;-71
2022/05/29 03:56:33;;;;;;;10.43;3.17;;;20.80;99.90;;;;;;5072790;28;20182;-71
2022/05/29 03:59:00;;;;;;;12.90;2.83;;;20.80;99.90;;;;;;5071076;28;20192;-70
2022/05/29 04:01:28;;;;;;;6.17;2.70;;;20.70;99.90;;;;;;5069293;28;20188;-70
2022/05/29 04:03:54;;;;;;;11.73;3.23;;;20.80;99.90;;;;;;5076022;28;20186;-70
2022/05/29 04:06:26;;;;;;;8.20;2.60;;;20.80;99.90;;;;;;5075076;28;20247;-71
2022/05/29 04:14:29;;;;;;;12.40;2.93;;;20.90;99.90;;;;;;5077229;28;20210;-70
2022/05/29 04:16:56;;;;;;;11.23;3.10;;;20.90;99.90;;;;;;5073915;28;20185;-71
2022/05/29 04:19:23;;;;;;;5.73;2.90;;;20.90;99.90;;;;;;5073859;28;20204;-71
2022/05/29 04:21:50;;;;;;;6.47;2.73;;;21.10;99.90;;;;;;5051271;28;20201;-71
2022/05/29 04:24:20;;;;;;;10.90;3.20;;;21.20;99.90;;;;;;5076012;28;20243;-71
2022/05/29 04:26:48;;;;;;;9.77;2.50;;;21.30;99.90;;;;;;5070866;28;20190;-70
2022/05/29 04:29:20;;;;;;;6.13;2.80;;;21.40;99.90;;;;;;5057050;28;20211;-71
2022/05/29 04:34:31;;;;;;;8.13;3.00;;;21.60;99.90;;;;;;5052745;28;20251;-71
2022/05/29 04:36:58;;;;;;;8.17;3.13;;;21.80;99.90;;;;;;5036397;28;20193;-70
2022/05/29 04:39:26;;;;;;;6.77;2.90;;;21.90;99.90;;;;;;5056121;28;20295;-70
2022/05/29 04:41:52;;;;;;;8.97;2.90;;;22.00;99.90;;;;;;5031403;28;20959;-72
2022/05/29 04:44:20;;;;;;;5.87;2.60;;;22.20;99.90;;;;;;5052537;28;21026;-70
2022/05/29 04:46:46;;;;;;;6.73;3.00;;;22.30;99.90;;;;;;5064368;28;20224;-70
2022/05/29 04:49:13;;;;;;;6.63;2.87;;;22.40;99.90;;;;;;5057863;28;20201;-72
2022/05/29 04:51:39;;;;;;;9.93;3.27;;;22.40;99.90;;;;;;5074113;28;20255;-70
2022/05/29 04:54:06;;;;;;;9.03;3.10;;;22.50;99.90;;;;;;5074617;28;20313;-71
2022/05/29 04:56:32;;;;;;;5.27;2.97;;;22.60;99.90;;;;;;5074182;28;20190;-71
2022/05/29 04:58:59;;;;;;;9.57;3.20;;;22.70;99.90;;;;;;5075368;28;20286;-71
2022/05/29 05:01:25;;;;;;;8.63;3.10;;;22.80;99.90;;;;;;5059130;28;20213;-71
2022/05/29 05:03:51;;;;;;;8.93;2.97;;;23.00;99.90;;;;;;5073721;28;20679;-69
2022/05/29 05:06:18;;;;;;;6.03;2.93;;;23.20;99.90;;;;;;5086383;28;20263;-70
2022/05/29 05:08:44;;;;;;;5.10;2.90;;;23.30;99.90;;;;;;5074243;28;20236;-71
2022/05/29 05:11:11;;;;;;;10.35;3.47;;;23.40;99.90;;;;;;5070881;28;20324;-69
2022/05/29 05:13:37;;;;;;;6.05;2.80;;;23.50;99.90;;;;;;5052442;28;20205;-70
2022/05/29 05:16:08;;;;;;;3.87;2.90;;;23.50;99.90;;;;;;5063320;28;20774;-71
2022/05/29 05:18:38;;;;;;;8.05;2.80;;;23.60;99.90;;;;;;5073360;28;21357;-71
2022/05/29 05:21:07;;;;;;;7.40;3.28;;;23.50;99.90;;;;;;5071478;28;20191;-69
2022/05/29 05:23:35;;;;;;;5.73;2.80;;;23.60;99.90;;;;;;5054503;28;20300;-70
2022/05/29 05:26:10;;;;;;;6.23;3.10;;;23.60;99.90;;;;;;5064667;28;20633;-70
2022/05/29 05:28:37;;;;;;;6.80;2.90;;;23.60;99.90;;;;;;5075515;28;20220;-70
2022/05/29 05:31:03;;;;;;;9.18;2.95;;;23.60;99.90;;;;;;5054438;28;20230;-69
2022/05/29 05:33:30;;;;;;;6.35;3.30;;;23.60;99.90;;;;;;5074670;28;20684;-70
2022/05/29 05:35:57;;;;;;;9.35;2.95;;;23.60;99.90;;;;;;5057787;28;20208;-70
2022/05/29 05:38:23;;;;;;;7.85;3.05;;;23.70;99.90;;;;;;5076323;28;20190;-72
2022/05/29 05:40:50;;;;;;;5.07;2.90;;;23.80;99.30;;;;;;5054475;28;20617;-69
2022/05/29 05:43:19;;;;;;;6.28;3.08;;;23.90;99.70;;;;;;5063830;28;20198;-70
2022/05/29 05:45:45;;;;;;;5.82;3.03;;;23.90;99.20;;;;;;5054099;28;20190;-70
2022/05/29 05:48:12;;;;;;;5.32;3.20;;;24.00;98.70;;;;;;5079443;28;20201;-70
2022/05/29 05:50:39;;;;;;;6.90;2.70;;;24.10;99.00;;;;;;5057673;28;20309;-70
2022/05/29 05:53:06;;;;;;;8.20;3.22;;;24.10;98.50;;;;;;5053330;28;20245;-69
2022/05/29 05:55:32;;;;;;;5.60;2.55;;;24.20;98.70;;;;;;5064937;28;20186;-71
2022/05/29 05:57:58;;;;;;;9.05;3.05;;;24.30;98.80;;;;;;5089562;28;20174;-72
2022/05/29 06:00:25;;;;;;;7.25;2.80;;;24.30;99.40;;;;;;5097987;28;20179;-72
2022/05/29 06:02:51;;;;;;;5.70;3.00;;;24.40;99.40;;;;;;5084963;28;20226;-70
2022/05/29 06:05:17;;;;;;;8.38;3.00;;;24.40;98.70;;;;;;5085793;28;20274;-70
2022/05/29 06:07:44;;;;;;;6.68;2.90;;;24.50;99.10;;;;;;5070530;28;20210;-70
2022/05/29 06:10:12;;;;;;;9.55;3.20;;;24.40;99.40;;;;;;5101225;28;20310;-69
2022/05/29 06:12:39;;;;;;;6.03;2.83;;;24.40;99.40;;;;;;5068944;28;20214;-70
2022/05/29 06:15:07;;;;;;;8.38;3.20;;;24.40;99.40;;;;;;5083344;28;20190;-71
2022/05/29 06:17:34;;;;;;;10.48;3.15;;;24.40;98.40;;;;;;5090988;28;20193;-70
2022/05/29 06:20:01;;;;;;;8.32;3.40;;;24.50;98.80;;;;;;5084519;28;20289;-70
2022/05/29 06:22:27;;;;;;;7.72;2.88;;;24.50;98.40;;;;;;5089656;28;20190;-70
2022/05/29 06:24:58;;;;;;;7.35;3.30;;;24.60;97.20;;;;;;5072484;28;20273;-71
2022/05/29 06:27:25;;;;;;;7.22;3.17;;;24.80;97.60;;;;;;5070872;28;20190;-70
2022/05/29 06:29:52;;;;;;;9.63;3.50;;;24.90;96.50;;;;;;5074014;28;20190;-71
2022/05/29 06:32:18;;;;;;;13.50;3.50;;;25.00;97.00;;;;;;5060325;28;20235;-69
2022/05/29 06:34:45;;;;;;;5.93;2.92;;;25.20;96.30;;;;;;5055401;28;20225;-70
2022/05/29 06:37:12;;;;;;;9.10;3.58;;;25.30;96.40;;;;;;5068124;28;20182;-71
2022/05/29 06:39:39;;;;;;;11.05;3.63;;;25.40;95.90;;;;;;5086253;28;20591;-70
2022/05/29 06:42:10;;;;;;;8.55;3.03;;;25.40;95.90;;;;;;5083982;28;20194;-70
2022/05/29 06:44:40;;;;;;;14.50;3.78;;;25.50;95.50;;;;;;5078551;28;20623;-70
2022/05/29 06:47:09;;;;;;;7.03;3.28;;;25.60;95.20;;;;;;5069137;28;20708;-72
2022/05/29 06:49:37;;;;;;;10.50;2.88;;;25.70;95.60;;;;;;5070692;28;20193;-70
2022/05/29 06:52:11;;;;;;;11.32;3.40;;;25.70;94.30;;;;;;5087077;28;20189;-70
2022/05/29 06:54:39;;;;;;;7.30;3.15;;;25.90;93.80;;;;;;5047801;28;20221;-71
2022/05/29 06:57:07;;;;;;;10.30;3.20;;;26.00;93.80;;;;;;5087772;28;20192;-71
2022/05/29 07:08:01;;;;;;;12.95;3.42;;;26.30;93.50;;;;;;5087821;28;20221;-71
2022/05/29 07:10:33;;;;;;;10.52;3.13;;;26.50;94.30;;;;;;5102151;28;20531;-70
2022/05/29 07:13:02;;;;;;;7.20;3.40;;;26.50;94.20;;;;;;5078330;28;20670;-71
2022/05/29 07:15:30;;;;;;;9.73;3.50;;;26.80;94.70;;;;;;5069402;28;20817;-72
2022/05/29 07:17:56;;;;;;;6.35;3.50;;;26.90;95.10;;;;;;5093119;28;20187;-72
2022/05/29 07:20:23;;;;;;;10.10;3.15;;;27.00;94.20;;;;;;5049069;28;20194;-70
2022/05/29 07:22:49;;;;;;;7.50;3.25;;;27.10;93.90;;;;;;5068927;28;20190;-70
2022/05/29 07:25:16;;;;;;;10.48;3.42;;;27.20;94.00;;;;;;5070499;28;20190;-70
2022/05/29 07:27:42;;;;;;;8.10;3.40;;;27.20;94.10;;;;;;5070668;28;20654;-70
2022/05/29 07:30:09;;;;;;;10.32;3.35;;;27.40;95.10;;;;;;5054321;28;20281;-74
2022/05/29 07:32:36;;;;;;;6.50;3.13;;;27.50;95.30;;;;;;5068963;28;20179;-71
2022/05/29 07:35:02;;;;;;;8.38;3.92;;;27.70;95.30;;;;;;5084443;28;20247;-71
2022/05/29 07:37:29;;;;;;;9.35;3.85;;;27.60;94.50;;;;;;5069271;28;20186;-72
2022/05/29 07:39:55;;;;;;;8.25;3.20;;;27.70;94.90;;;;;;5088236;28;20196;-72
2022/05/29 07:45:09;;;;;;;12.35;3.38;;;27.90;93.90;;;;;;5061988;28;20186;-72
2022/05/29 07:47:43;;;;;;;7.30;2.92;;;28.00;93.00;;;;;;5058158;28;20240;-70
2022/05/29 07:50:16;;;;;;;10.70;3.05;;;28.00;93.10;;;;;;5068486;28;20213;-71
2022/05/29 07:52:44;;;;;;;10.70;3.13;;;28.00;93.30;;;;;;5065711;28;20204;-72
2022/05/29 07:55:13;;;;;;;5.18;2.85;;;28.00;93.00;;;;;;5058317;28;20201;-71
2022/05/29 07:57:39;;;;;;;10.27;3.40;;;28.10;93.00;;;;;;5082750;28;20356;-70
2022/05/29 08:00:10;;;;;;;8.00;3.17;;;28.30;93.50;;;;;;5074009;28;20186;-72
2022/05/29 08:02:37;;;;;;;12.65;3.20;;;28.30;93.70;;;;;;5087764;28;20174;-72
2022/05/29 08:05:07;;;;;;;11.82;3.35;;;28.40;94.50;;;;;;5070043;28;20590;-71
2022/05/29 08:07:33;;;;;;;9.68;3.40;;;28.40;94.20;;;;;;5088166;28;20178;-70
2022/05/29 08:10:00;;;;;;;10.15;3.20;;;28.60;94.30;;;;;;5057644;28;20839;-71
2022/05/29 08:12:29;;;;;;;9.10;3.28;;;28.70;94.70;;;;;;5049569;28;20219;-71
2022/05/29 08:14:56;;;;;;;12.10;2.92;;;28.70;93.60;;;;;;5068350;28;20659;-72
2022/05/29 08:17:22;;;;;;;8.55;3.17;;;28.80;94.20;;;;;;5055345;28;20197;-70
2022/05/29 08:19:48;;;;;;;12.48;3.13;;;28.70;93.90;;;;;;5092199;28;20215;-72
2022/05/29 08:22:15;;;;;;;7.82;3.03;;;28.80;93.60;;;;;;5051766;28;20250;-74
2022/05/29 08:30:41;;;;;;;6.05;3.20;;;29.10;93.00;;;;;;5058312;28;20702;-75
2022/05/29 08:33:24;;;;;;;8.98;3.20;;;29.20;91.80;;;;;;5045840;28;20211;-74
2022/05/29 08:36:22;;;;;;;5.38;2.95;;;29.30;92.50;;;;;;5077049;28;20190;-75
2022/05/29 08:38:52;;;;;;;11.13;3.22;;;29.30;93.10;;;;;;5088122;28;20178;-74
2022/05/29 08:41:48;;;;;;;12.55;3.63;;;29.50;93.30;;;;;;5049207;28;20198;-73
2022/05/29 08:44:37;;;;;;;7.82;3.40;;;29.60;92.20;;;;;;5057544;28;20702;-74
2022/05/29 08:47:06;;;;;;;8.82;3.40;;;29.70;92.00;;;;;;5065846;28;20209;-72
2022/05/29 08:49:45;;;;;;;13.25;3.60;;;29.80;91.60;;;;;;5052883;28;20209;-74
2022/05/29 08:52:35;;;;;;;6.07;2.70;;;29.90;91.70;;;;;;5059417;28;20204;-73
2022/05/29 08:55:05;;;;;;;6.63;3.10;;;30.00;91.50;;;;;;5053620;28;20332;-74
2022/05/29 08:58:01;;;;;;;8.30;2.85;;;30.20;92.00;;;;;;5050142;28;20190;-72
2022/05/29 09:01:09;;;;;;;11.07;3.35;;;30.20;92.00;;;;;;5051287;28;20561;-73
2022/05/29 09:04:11;;;;;;;8.38;3.15;;;30.20;91.60;;;;;;5042327;28;20241;-75
2022/05/29 09:06:54;;;;;;;11.25;3.55;;;30.30;92.60;;;;;;5055514;28;20578;-74
2022/05/29 09:09:26;;;;;;;10.30;3.30;;;30.50;91.80;;;;;;5065486;28;20464;-75
2022/05/29 09:12:06;;;;;;;9.50;3.28;;;30.50;92.00;;;;;;5095628;28;20295;-74
2022/05/29 09:15:10;;;;;;;7.85;2.95;;;30.60;92.50;;;;;;5079972;28;20660;-77
2022/05/29 09:17:51;;;;;;;10.50;3.42;;;30.70;91.80;;;;;;5086022;28;20260;-75
2022/05/29 09:20:46;;;;;;;8.70;2.88;;;30.80;90.40;;;;;;5076157;28;20183;-69
2022/05/29 09:23:27;;;;;;;10.27;3.53;;;31.00;92.20;;;;;;5065881;28;20206;-74
2022/05/29 09:25:57;;;;;;;14.15;3.28;;;31.00;91.50;;;;;;5068581;28;20201;-74
2022/05/29 09:28:41;;;;;;;12.82;3.58;;;31.10;90.90;;;;;;5048927;28;20273;-70
2022/05/29 09:31:26;;;;;;;9.32;3.20;;;31.10;90.40;;;;;;5045478;28;20186;-70
2022/05/29 09:33:54;;;;;;;9.18;2.85;;;31.00;90.80;;;;;;5065039;28;20258;-72
2022/05/29 09:36:35;;;;;;;8.27;3.10;;;31.00;90.90;;;;;;5083016;28;20217;-71
2022/05/29 09:39:26;;;;;;;10.27;3.35;;;31.10;93.40;;;;;;5098115;28;20758;-70
2022/05/29 09:42:37;;;;;;;12.15;3.55;;;31.20;92.90;;;;;;5069063;28;20185;-72
2022/05/29 09:45:32;;;;;;;8.82;3.03;;;31.30;94.30;;;;;;5088496;28;20213;-69
2022/05/29 09:50:51;;;;;;;13.45;3.58;;;31.20;92.80;;;;;;5060557;28;20201;-71
2022/05/29 09:53:34;;;;;;;12.27;3.45;;;31.30;93.00;;;;;;5094708;28;20262;-72
2022/05/29 09:56:07;;;;;;;9.18;3.17;;;31.40;92.80;;;;;;5079900;28;20181;-70
2022/05/29 09:58:50;;;;;;;12.07;3.67;;;31.30;93.20;;;;;;5082275;28;20186;-72
2022/05/29 10:01:40;;;;;;;11.60;3.28;;;31.30;93.80;;;;;;5092285;28;20240;-69
2022/05/29 10:04:37;;;;;;;8.07;3.22;;;31.50;94.10;;;;;;5090267;28;20196;-69
2022/05/29 10:07:27;;;;;;;10.07;3.20;;;31.60;93.60;;;;;;5088679;28;20186;-70
2022/05/29 10:10:02;;;;;;;13.43;3.40;;;31.70;93.60;;;;;;5097308;28;20193;-74
2022/05/29 10:12:40;;;;;;;14.02;4.25;;;31.60;93.60;;;;;;5071231;28;20566;-70
2022/05/29 10:15:26;;;;;;;11.07;3.85;;;31.60;93.70;;;;;;5086096;28;20290;-71
2022/05/29 10:17:55;;;;;;;9.63;3.35;;;31.50;93.60;;;;;;5085159;28;20878;-71
2022/05/29 10:20:42;;;;;;;13.27;3.33;;;31.40;94.40;;;;;;5080654;28;22009;-69
2022/05/29 10:23:31;;;;;;;7.75;3.05;;;31.50;94.50;;;;;;5078240;28;20197;-70
2022/05/29 10:26:27;;;;;;;8.88;3.30;;;31.50;94.20;;;;;;5086858;28;20186;-68
2022/05/29 10:28:54;;;;;;;9.10;3.45;;;31.50;93.90;;;;;;5085750;28;20181;-71
2022/05/29 10:31:36;;;;;;;13.75;3.83;;;31.40;94.20;;;;;;5086418;28;20189;-71
2022/05/29 10:34:11;;;;;;;11.38;3.85;;;31.40;95.80;;;;;;5070349;28;20605;-70
2022/05/29 10:36:40;;;;;;;13.30;3.58;;;31.50;96.20;;;;;;5067333;28;20511;-70
2022/05/29 10:39:24;;;;;;;7.15;3.40;;;31.40;95.60;;;;;;5082834;28;20308;-70
2022/05/29 10:41:52;;;;;;;9.75;3.55;;;31.50;95.70;;;;;;5082178;28;20189;-72
2022/05/29 10:44:43;;;;;;;13.48;3.08;;;31.50;95.70;;;;;;5071384;28;20189;-71
2022/05/29 10:47:36;;;;;;;10.75;3.58;;;31.50;96.40;;;;;;5082353;28;20190;-71
2022/05/29 10:50:16;;;;;;;12.88;3.45;;;31.40;95.40;;;;;;5087266;28;20245;-68
2022/05/29 10:53:06;;;;;;;11.10;3.58;;;31.30;95.90;;;;;;5060272;28;20846;-69
2022/05/29 10:55:48;;;;;;;9.70;3.50;;;31.30;96.00;;;;;;5074062;28;20194;-72
2022/05/29 10:58:25;;;;;;;11.77;3.45;;;31.30;97.80;;;;;;5066328;28;20204;-71
2022/05/29 11:04:34;;;;;;;12.50;3.80;;;31.30;98.70;;;;;;5084178;28;20673;-69
2022/05/29 11:07:27;;;;;;;9.40;3.63;;;31.30;99.90;;;;;;5093924;28;20194;-71
2022/05/29 11:10:20;;;;;;;6.50;3.25;;;31.20;99.90;;;;;;5085439;28;20214;-69
2022/05/29 11:13:07;;;;;;;12.20;4.20;;;31.10;99.90;;;;;;5080760;28;20242;-72
2022/05/29 11:16:30;;;;;;;10.73;3.70;;;31.00;99.90;;;;;;5072362;28;20507;-72
2022/05/29 11:19:17;;;;;;;11.73;4.13;;;31.00;99.90;;;;;;5071807;28;20303;-73
2022/05/29 11:22:22;;;;;;;14.07;3.97;;;30.90;99.90;;;;;;5070074;28;20192;-71
2022/05/29 11:25:34;;;;;;;10.77;4.18;;;30.90;99.90;;;;;;5060400;28;20185;-72
2022/05/29 11:28:44;;;;;;;12.18;4.28;;;30.80;99.90;;;;;;5077971;28;20607;-70
2022/05/29 11:31:52;;;;;;;13.07;4.55;;;30.80;99.90;;;;;;5074111;28;20947;-68
2022/05/29 11:34:42;;;;;;;12.85;4.15;;;30.80;99.90;;;;;;5078073;28;20230;-70
2022/05/29 11:38:01;;;;;;;9.13;3.72;;;30.80;99.90;;;;;;5089416;28;20178;-68
2022/05/29 11:40:46;;;;;;;9.45;3.95;;;30.70;99.90;;;;;;5075900;28;20190;-71
2022/05/29 11:43:49;;;;;;;10.43;4.13;;;30.70;99.90;;;;;;5052237;28;20826;-70
2022/05/29 11:53:05;;;;;;;12.75;4.10;;;30.70;99.90;;;;;;5031768;28;20911;-73
2022/05/29 11:55:41;;;;;;;12.38;3.78;;;30.70;99.90;;;;;;5091166;28;20202;-70
2022/05/29 11:58:47;;;;;;;14.32;4.15;;;30.70;99.90;;;;;;5066354;28;20190;-74
2022/05/29 12:01:34;;;;;;;11.40;3.72;;;30.60;99.90;;;;;;5082296;28;20942;-72
2022/05/29 12:04:22;;;;;;;9.65;3.30;;;30.60;99.90;;;;;;5058049;28;20190;-70
2022/05/29 12:07:05;;;;;;;11.05;4.22;;;30.60;99.90;;;;;;5081115;28;20641;-75
2022/05/29 12:09:40;;;;;;;12.43;4.35;;;30.60;99.90;;;;;;5058220;28;20200;-72
2022/05/29 12:12:13;;;;;;;9.70;4.10;;;30.60;99.90;;;;;;5091271;28;20489;-75
2022/05/29 12:14:59;;;;;;;13.57;3.72;;;30.70;99.90;;;;;;5064194;28;20206;-72
2022/05/29 12:17:35;;;;;;;9.85;3.50;;;30.80;99.90;;;;;;5066350;28;20185;-71
2022/05/29 12:21:01;;;;;;;12.85;3.80;;;30.80;99.90;;;;;;5084502;28;20304;-73
2022/05/29 12:23:43;;;;;;;8.32;3.40;;;30.60;99.90;;;;;;4997235;28;20201;-71
2022/05/29 12:26:36;;;;;;;10.32;3.90;;;30.70;99.70;;;;;;4991123;28;20334;-71
2022/05/29 12:29:31;;;;;;;14.75;4.00;;;30.70;99.90;;;;;;5031774;28;20288;-73
2022/05/29 12:32:19;;;;;;;14.25;3.95;;;30.70;99.90;;;;;;5089244;28;20915;-71
2022/05/29 12:35:02;;;;;;;15.52;3.63;;;30.70;99.90;;;;;;5069441;28;20554;-71
2022/05/29 12:38:05;;;;;;;19.70;3.95;;;30.80;99.90;;;;;;5083367;28;20189;-74
2022/05/29 12:41:27;;;;;;;12.00;3.70;;;30.90;99.90;;;;;;5071891;28;20666;-73
2022/05/29 12:44:24;;;;;;;9.55;3.88;;;30.80;99.90;;;;;;5044039;28;20638;-71
2022/05/29 12:47:40;;;;;;;10.20;3.92;;;30.70;99.90;;;;;;5076919;28;20266;-72
2022/05/29 12:50:15;;;;;;;11.60;3.85;;;30.70;99.90;;;;;;5073442;28;20261;-70
2022/05/29 12:53:00;;;;;;;16.83;4.03;;;30.60;99.90;;;;;;5079425;28;20184;-74
2022/05/29 12:56:05;;;;;;;10.25;3.20;;;30.60;99.90;;;;;;5066744;28;20212;-74
2022/05/29 12:58:58;;;;;;;8.52;3.28;;;30.60;99.90;;;;;;5051413;28;20185;-72
2022/05/29 13:01:57;;;;;;;8.48;3.67;;;30.70;99.90;;;;;;5061016;28;20636;-71
2022/05/29 13:04:40;;;;;;;13.35;3.92;;;30.60;99.90;;;;;;5023721;28;20213;-73
2022/05/29 13:07:30;;;;;;;15.65;4.05;;;30.60;99.90;;;;;;5070694;28;20177;-73
2022/05/29 13:10:25;;;;;;;10.05;3.38;;;30.60;99.90;;;;;;5078121;28;20247;-73
2022/05/29 13:13:06;;;;;;;17.90;3.58;;;30.60;99.90;;;;;;5079283;28;20209;-69
2022/05/29 13:15:38;;;;;;;18.55;4.47;;;30.50;99.90;;;;;;5070810;28;20220;-74
2022/05/29 13:21:20;;;;;;;9.95;4.00;;;30.50;99.90;;;;;;5088812;28;20178;-73
2022/05/29 13:23:53;;;;;;;17.17;3.58;;;30.40;99.90;;;;;;5071263;28;20212;-72
2022/05/29 13:26:29;;;;;;;11.40;3.58;;;30.30;99.90;;;;;;5076843;28;20186;-71
2022/05/29 13:29:12;;;;;;;11.68;3.00;;;30.30;99.10;;;;;;5062137;28;20186;-71
2022/05/29 13:32:15;;;;;;;10.20;3.33;;;30.20;99.20;;;;;;5068387;28;20690;-74
2022/05/29 13:35:12;;;;;;;7.75;2.95;;;30.30;99.50;;;;;;5053343;28;20206;-73
2022/05/29 13:37:47;;;;;;;10.07;4.13;;;30.20;99.00;;;;;;5098923;28;20185;-74
2022/05/29 13:40:21;;;;;;;10.18;3.17;;;30.20;98.80;;;;;;5075772;28;20193;-71
2022/05/29 13:42:51;;;;;;;11.60;3.85;;;30.20;98.80;;;;;;5056619;28;20191;-70
2022/05/29 13:45:24;;;;;;;11.43;3.33;;;30.20;99.00;;;;;;5057682;28;20212;-74
2022/05/29 13:48:05;;;;;;;7.57;3.25;;;30.20;98.50;;;;;;5086978;28;20820;-72
2022/05/29 13:50:40;;;;;;;12.57;3.67;;;30.20;98.30;;;;;;5067851;28;20243;-71
2022/05/29 13:53:31;;;;;;;16.25;4.07;;;30.30;98.00;;;;;;5077497;28;20201;-71
2022/05/29 13:56:09;;;;;;;12.02;3.47;;;30.20;97.50;;;;;;5086791;28;20257;-72
2022/05/29 14:04:36;;;;;;;13.68;3.42;;;30.20;97.20;;;;;;5068518;28;20182;-71
2022/05/29 14:07:08;;;;;;;14.55;3.17;;;30.20;95.70;;;;;;5055154;28;20247;-73
2022/05/29 14:09:39;;;;;;;11.63;3.58;;;30.10;96.90;;;;;;5083073;28;20209;-74
2022/05/29 14:12:53;;;;;;;7.65;3.20;;;30.10;95.50;;;;;;5088056;28;20205;-71
2022/05/29 14:15:33;;;;;;;14.77;3.22;;;30.00;95.10;;;;;;5068154;28;20210;-72
2022/05/29 14:18:13;;;;;;;9.25;3.00;;;30.00;95.10;;;;;;5076046;28;20265;-71
2022/05/29 14:21:35;;;;;;;9.82;3.60;;;30.00;93.80;;;;;;5058187;28;20191;-72
2022/05/29 14:24:36;;;;;;;12.48;3.47;;;30.00;93.70;;;;;;5084323;28;20194;-72
2022/05/29 14:27:29;;;;;;;11.23;3.13;;;29.90;93.70;;;;;;5069075;28;20222;-70
2022/05/29 14:30:02;;;;;;;14.13;3.10;;;29.90;94.40;;;;;;5060909;28;20597;-73